createdAt,value
2019-04-20T00:01:52.689Z,102681.69
2019-04-20T00:04:28.991Z,102675.38
2019-04-20T00:06:56.053Z,102682.41
2019-04-20T00:09:29.843Z,102679.29
2019-04-20T00:12:06.739Z,102679.70
2019-04-20T00:14:32.069Z,102674.76
2019-04-20T00:16:58.866Z,102678.18
2019-04-20T00:19:35.404Z,102676.07
2019-04-20T00:22:08.254Z,102672.06
2019-04-20T00:24:43.815Z,102670.23
2019-04-20T00:27:40.548Z,102674.63
2019-04-20T00:29:58.808Z,102673.70
2019-04-20T00:32:29.430Z,102669.68
2019-04-20T00:34:48.848Z,102666.97
2019-04-20T00:37:17.312Z,102665.72
2019-04-20T00:39:46.849Z,102665.99
2019-04-20T00:42:17.955Z,102667.33
2019-04-20T00:44:58.804Z,102664.58
2019-04-20T00:47:33.450Z,102663.99
2019-04-20T00:50:00.925Z,102661.62
2019-04-20T00:52:35.654Z,102663.07
2019-04-20T00:54:51.534Z,102664.39
2019-04-20T00:57:33.973Z,102674.42
2019-04-20T01:00:04.938Z,102669.48
2019-04-20T01:02:37.237Z,102667.66
2019-04-20T01:05:10.975Z,102661.11
2019-04-20T01:07:48.542Z,102665.09
2019-04-20T01:10:17.343Z,102666.41
2019-04-20T01:13:01.156Z,102665.98
2019-04-20T01:18:14.028Z,102664.52
2019-04-20T01:20:43.090Z,102660.21
2019-04-20T01:23:17.184Z,102661.94
2019-04-20T01:25:46.655Z,102669.18
2019-04-20T01:28:35.831Z,102673.09
2019-04-20T01:31:00.001Z,102669.13
2019-04-20T01:33:31.738Z,102667.71
2019-04-20T01:36:03.525Z,102669.25
2019-04-20T01:38:37.384Z,102675.72
2019-04-20T01:40:50.567Z,102676.70
2019-04-20T01:43:20.594Z,102673.48
2019-04-20T01:45:58.433Z,102673.06
2019-04-20T01:48:27.442Z,102683.55
2019-04-20T01:50:59.817Z,102682.88
2019-04-20T01:53:44.108Z,102695.44
2019-04-20T01:56:13.760Z,102690.20
2019-04-20T01:59:04.673Z,102694.53
2019-04-20T02:01:42.074Z,102693.74
2019-04-20T02:04:20.475Z,102693.56
2019-04-20T02:06:50.633Z,102696.88
2019-04-20T02:09:21.119Z,102691.06
2019-04-20T02:11:50.849Z,102702.30
2019-04-20T02:14:26.822Z,102707.83
2019-04-20T02:17:01.651Z,102703.94
2019-04-20T02:19:34.684Z,102707.49
2019-04-20T02:22:07.580Z,102707.66
2019-04-20T02:24:23.853Z,102704.39
2019-04-20T02:26:53.633Z,102703.55
2019-04-20T02:29:47.463Z,102705.72
2019-04-20T02:38:12.561Z,102710.92
2019-04-20T02:40:45.214Z,102709.41
2019-04-20T02:45:52.800Z,102716.67
2019-04-20T02:48:07.731Z,102725.00
2019-04-20T02:50:36.178Z,102716.88
2019-04-20T02:53:11.442Z,102718.05
2019-04-20T02:55:40.293Z,102719.78
2019-04-20T02:58:11.332Z,102712.16
2019-04-20T03:00:36.749Z,102717.38
2019-04-20T03:02:53.358Z,102725.50
2019-04-20T03:05:28.386Z,102723.13
2019-04-20T03:08:02.256Z,102722.05
2019-04-20T03:10:44.562Z,102721.42
2019-04-20T03:13:09.863Z,102713.80
2019-04-20T03:15:37.562Z,102724.78
2019-04-20T03:18:12.075Z,102723.98
2019-04-20T03:20:43.514Z,102726.61
2019-04-20T03:23:26.425Z,102728.28
2019-04-20T03:26:06.438Z,102734.33
2019-04-20T03:28:50.527Z,102730.56
2019-04-20T03:31:45.155Z,102720.08
2019-04-20T03:34:23.128Z,102725.32
2019-04-20T03:36:39.399Z,102727.35
2019-04-20T03:38:58.392Z,102730.05
2019-04-20T03:41:21.912Z,102730.70
2019-04-20T03:43:40.194Z,102729.45
2019-04-20T03:46:14.145Z,102724.57
2019-04-20T03:48:58.614Z,102733.34
2019-04-20T03:51:33.475Z,102727.11
2019-04-20T03:54:25.146Z,102727.86
2019-04-20T03:57:18.392Z,102727.89
2019-04-20T03:59:53.307Z,102723.16
2019-04-20T04:02:37.715Z,102729.83
2019-04-20T04:05:25.070Z,102732.56
2019-04-20T04:07:43.749Z,102726.12
2019-04-20T04:10:23.301Z,102734.42
2019-04-20T04:13:17.134Z,102734.36
2019-04-20T04:15:53.271Z,102734.97
2019-04-20T04:18:28.055Z,102737.80
2019-04-20T04:20:59.461Z,102730.55
2019-04-20T04:23:40.814Z,102740.81
2019-04-20T04:26:08.758Z,102736.16
2019-04-20T04:28:42.360Z,102739.50
2019-04-20T04:31:12.186Z,102739.85
2019-04-20T04:36:15.309Z,102741.75
2019-04-20T04:38:53.525Z,102734.20
2019-04-20T04:41:25.597Z,102742.16
2019-04-20T04:43:49.767Z,102748.42
2019-04-20T04:46:03.769Z,102749.09
2019-04-20T04:48:37.525Z,102750.77
2019-04-20T04:51:11.920Z,102759.98
2019-04-20T04:53:47.573Z,102755.26
2019-04-20T04:56:13.118Z,102754.61
2019-04-20T04:58:38.580Z,102764.53
2019-04-20T05:01:14.753Z,102749.34
2019-04-20T05:04:02.988Z,102750.91
2019-04-20T05:06:31.808Z,102756.17
2019-04-20T05:08:53.073Z,102762.07
2019-04-20T05:11:19.838Z,102763.53
2019-04-20T05:13:56.681Z,102761.70
2019-04-20T05:16:42.793Z,102764.22
2019-04-20T05:19:14.404Z,102770.27
2019-04-20T05:22:08.220Z,102766.80
2019-04-20T05:24:59.690Z,102760.09
2019-04-20T05:27:34.869Z,102763.86
2019-04-20T05:29:46.741Z,102765.84
2019-04-20T05:32:24.777Z,102764.71
2019-04-20T05:35:10.868Z,102759.65
2019-04-20T05:37:41.358Z,102761.97
2019-04-20T05:40:11.888Z,102758.55
2019-04-20T05:42:48.609Z,102771.88
2019-04-20T05:45:18.191Z,102769.34
2019-04-20T05:47:47.741Z,102770.14
2019-04-20T05:50:22.853Z,102767.65
2019-04-20T05:52:56.148Z,102767.52
2019-04-20T05:55:49.335Z,102764.30
2019-04-20T05:58:26.129Z,102759.73
2019-04-20T06:01:01.584Z,102755.20
2019-04-20T06:03:29.060Z,102761.53
2019-04-20T06:06:03.514Z,102764.31
2019-04-20T06:08:38.443Z,102752.20
2019-04-20T06:12:07.485Z,102766.44
2019-04-20T06:14:41.507Z,102761.40
2019-04-20T06:17:30.362Z,102757.12
2019-04-20T06:20:02.346Z,102762.30
2019-04-20T06:22:45.125Z,102765.52
2019-04-20T06:25:22.762Z,102766.09
2019-04-20T06:27:49.829Z,102765.87
2019-04-20T06:30:06.944Z,102773.05
2019-04-20T06:33:34.254Z,102770.13
2019-04-20T06:36:07.551Z,102771.22
2019-04-20T06:38:42.223Z,102764.92
2019-04-20T06:43:42.256Z,102768.27
2019-04-20T06:46:11.217Z,102768.33
2019-04-20T06:48:44.491Z,102775.48
2019-04-20T06:51:09.228Z,102772.07
2019-04-20T06:53:49.953Z,102769.94
2019-04-20T06:56:31.134Z,102767.84
2019-04-20T06:59:08.205Z,102771.90
2019-04-20T07:01:36.973Z,102770.61
2019-04-20T07:04:26.954Z,102772.08
2019-04-20T07:09:06.496Z,102775.16
2019-04-20T07:11:39.077Z,102775.09
2019-04-20T07:13:56.488Z,102774.77
2019-04-20T07:16:46.507Z,102769.53
2019-04-20T07:19:18.875Z,102770.02
2019-04-20T07:22:15.243Z,102775.00
2019-04-20T07:24:42.869Z,102777.15
2019-04-20T07:27:00.734Z,102778.98
2019-04-20T07:29:40.841Z,102782.66
2019-04-20T07:32:04.002Z,102786.66
2019-04-20T07:34:38.754Z,102779.63
2019-04-20T07:37:40.719Z,102785.37
2019-04-20T07:39:40.176Z,102781.44
2019-04-20T07:42:16.977Z,102781.47
2019-04-20T07:44:48.664Z,102793.50
2019-04-20T07:47:24.190Z,102789.05
2019-04-20T07:49:45.653Z,102785.44
2019-04-20T07:51:57.623Z,102785.92
2019-04-20T07:55:03.642Z,102788.18
2019-04-20T07:57:15.857Z,102783.31
2019-04-20T07:59:43.646Z,102781.53
2019-04-20T08:02:47.343Z,102785.98
2019-04-20T08:05:25.633Z,102777.98
2019-04-20T08:07:55.064Z,102775.77
2019-04-20T08:10:30.932Z,102779.80
2019-04-20T08:13:09.556Z,102774.83
2019-04-20T08:15:43.039Z,102769.00
2019-04-20T08:20:34.077Z,102766.88
2019-04-20T08:23:09.791Z,102765.45
2019-04-20T08:25:32.808Z,102766.38
2019-04-20T08:28:13.556Z,102765.83
2019-04-20T08:31:16.906Z,102768.02
2019-04-20T08:34:04.480Z,102763.98
2019-04-20T08:36:26.980Z,102760.88
2019-04-20T08:39:16.968Z,102766.58
2019-04-20T08:41:20.654Z,102767.05
2019-04-20T08:43:59.002Z,102760.88
2019-04-20T08:46:38.335Z,102765.21
2019-04-20T08:49:03.230Z,102757.47
2019-04-20T08:51:31.883Z,102752.36
2019-04-20T08:54:02.245Z,102756.80
2019-04-20T08:56:29.115Z,102758.17
2019-04-20T08:58:48.412Z,102755.89
2019-04-20T09:01:27.336Z,102757.14
2019-04-20T09:04:05.420Z,102752.63
2019-04-20T09:06:41.986Z,102747.55
2019-04-20T09:09:29.097Z,102743.73
2019-04-20T09:11:49.297Z,102750.20
2019-04-20T09:14:18.760Z,102749.81
2019-04-20T09:16:57.086Z,102746.71
2019-04-20T09:19:29.907Z,102742.66
2019-04-20T09:22:24.408Z,102748.19
2019-04-20T09:25:16.142Z,102744.42
2019-04-20T09:27:26.866Z,102741.09
2019-04-20T09:30:06.160Z,102735.13
2019-04-20T09:32:36.126Z,102734.85
2019-04-20T09:35:11.403Z,102735.68
2019-04-20T09:37:53.091Z,102735.70
2019-04-20T09:40:34.990Z,102736.27
2019-04-20T09:43:08.921Z,102736.94
2019-04-20T09:45:48.119Z,102732.08
2019-04-20T09:48:23.237Z,102732.50
2019-04-20T09:51:05.017Z,102731.03
2019-04-20T09:53:31.419Z,102739.14
2019-04-20T09:56:08.824Z,102733.89
2019-04-20T09:58:30.762Z,102733.80
2019-04-20T10:01:01.820Z,102731.44
2019-04-20T10:03:22.382Z,102730.19
2019-04-20T10:05:52.017Z,102727.14
2019-04-20T10:08:21.889Z,102729.91
2019-04-20T10:10:52.901Z,102725.90
2019-04-20T10:13:22.342Z,102724.55
2019-04-20T10:15:51.651Z,102729.38
2019-04-20T10:18:21.871Z,102729.69
2019-04-20T10:20:51.654Z,102724.02
2019-04-20T10:23:20.983Z,102728.44
2019-04-20T10:25:50.905Z,102718.17
2019-04-20T10:28:21.572Z,102717.27
2019-04-20T10:30:50.908Z,102708.82
2019-04-20T10:33:21.639Z,102709.78
2019-04-20T10:35:51.845Z,102711.97
2019-04-20T10:38:25.537Z,102712.27
2019-04-20T10:41:05.358Z,102707.64
2019-04-20T10:43:26.106Z,102707.97
2019-04-20T10:45:55.421Z,102705.78
2019-04-20T10:48:24.846Z,102702.66
2019-04-20T10:50:54.829Z,102698.98
2019-04-20T10:53:24.243Z,102704.30
2019-04-20T10:55:53.587Z,102698.05
2019-04-20T10:58:22.922Z,102694.80
2019-04-20T11:03:22.717Z,102693.16
2019-04-20T11:05:52.989Z,102696.30
2019-04-20T11:08:22.518Z,102696.02
2019-04-20T11:11:04.843Z,102693.33
2019-04-20T11:13:23.556Z,102689.03
2019-04-20T11:15:52.962Z,102685.14
2019-04-20T11:18:22.273Z,102689.40
2019-04-20T11:20:51.583Z,102677.98
2019-04-20T11:23:22.368Z,102679.89
2019-04-20T11:25:52.492Z,102677.30
2019-04-20T11:28:22.015Z,102679.98
2019-04-20T11:30:52.171Z,102677.84
2019-04-20T11:33:22.389Z,102675.35
2019-04-20T11:35:51.708Z,102662.55
2019-04-20T11:38:22.003Z,102663.28
2019-04-20T11:41:04.143Z,102654.44
2019-04-20T11:43:22.393Z,102658.59
2019-04-20T11:45:51.967Z,102655.39
2019-04-20T11:48:23.372Z,102657.55
2019-04-20T11:50:53.600Z,102652.36
2019-04-20T11:53:26.499Z,102648.88
2019-04-20T11:55:56.325Z,102644.50
2019-04-20T11:58:26.126Z,102640.32
2019-04-20T12:01:03.211Z,102639.09
2019-04-20T12:03:35.272Z,102642.19
2019-04-20T12:06:01.633Z,102627.09
2019-04-20T12:08:31.182Z,102632.20
2019-04-20T12:11:12.051Z,102621.48
2019-04-20T12:13:31.871Z,102622.03
2019-04-20T12:16:01.564Z,102618.34
2019-04-20T12:18:31.690Z,102612.80
2019-04-20T12:21:03.034Z,102612.66
2019-04-20T12:23:34.000Z,102612.75
2019-04-20T12:26:04.793Z,102603.69
2019-04-20T12:28:34.169Z,102603.88
2019-04-20T12:31:11.417Z,102605.65
2019-04-20T12:33:34.786Z,102594.47
2019-04-20T12:36:06.129Z,102589.88
2019-04-20T12:38:35.500Z,102596.23
2019-04-20T12:41:06.585Z,102591.69
2019-04-20T12:43:36.063Z,102589.80
2019-04-20T12:46:05.977Z,102583.54
2019-04-20T12:48:35.552Z,102589.50
2019-04-20T12:51:05.787Z,102592.41
2019-04-20T12:53:38.266Z,102594.86
2019-04-20T12:56:08.640Z,102587.85
2019-04-20T12:58:41.643Z,102579.78
2019-04-20T13:01:10.155Z,102582.59
2019-04-20T13:03:39.681Z,102580.34
2019-04-20T13:06:09.918Z,102576.31
2019-04-20T13:08:45.114Z,102575.52
2019-04-20T13:11:16.673Z,102570.14
2019-04-20T13:14:08.379Z,102570.28
2019-04-20T13:16:38.699Z,102569.31
2019-04-20T13:19:08.928Z,102566.99
2019-04-20T13:21:39.085Z,102562.28
2019-04-20T13:24:09.304Z,102556.97
2019-04-20T13:26:38.851Z,102558.25
2019-04-20T13:29:08.736Z,102557.72
2019-04-20T13:31:40.003Z,102550.23
2019-04-20T13:34:15.097Z,102551.54
2019-04-20T13:36:46.261Z,102556.55
2019-04-20T13:39:19.852Z,102537.60
2019-04-20T13:42:03.504Z,102546.66
2019-04-20T13:44:34.950Z,102540.61
2019-04-20T13:47:09.407Z,102536.66
2019-04-20T13:49:45.068Z,102523.35
2019-04-20T13:52:16.995Z,102527.09
2019-04-20T13:55:23.461Z,102519.02
2019-04-20T13:58:11.702Z,102518.39
2019-04-20T14:00:50.927Z,102518.25
2019-04-20T14:03:44.995Z,102509.13
2019-04-20T14:06:14.386Z,102504.12
2019-04-20T14:08:45.511Z,102504.60
2019-04-20T14:11:17.731Z,102505.02
2019-04-20T14:13:53.616Z,102501.12
2019-04-20T14:16:18.954Z,102497.97
2019-04-20T14:18:49.183Z,102496.55
2019-04-20T14:21:20.384Z,102486.52
2019-04-20T14:23:50.867Z,102481.82
2019-04-20T14:26:21.018Z,102481.88
2019-04-20T14:28:51.287Z,102479.42
2019-04-20T14:31:21.642Z,102478.55
2019-04-20T14:33:51.088Z,102476.63
2019-04-20T14:36:21.106Z,102477.03
2019-04-20T14:38:50.435Z,102471.73
2019-04-20T14:41:20.124Z,102479.65
2019-04-20T14:43:49.509Z,102470.09
2019-04-20T14:46:18.888Z,102472.00
2019-04-20T14:48:49.034Z,102472.22
2019-04-20T14:51:19.481Z,102469.46
2019-04-20T14:53:49.504Z,102459.47
2019-04-20T14:56:19.728Z,102456.03
2019-04-20T14:59:14.121Z,102451.97
2019-04-20T15:01:50.089Z,102453.08
2019-04-20T15:04:21.949Z,102451.54
2019-04-20T15:06:50.673Z,102446.29
2019-04-20T15:09:21.076Z,102440.09
2019-04-20T15:11:50.762Z,102447.41
2019-04-20T15:14:20.747Z,102443.17
2019-04-20T15:16:50.873Z,102439.22
2019-04-20T15:19:31.698Z,102447.20
2019-04-20T15:22:03.271Z,102437.30
2019-04-20T15:24:33.511Z,102434.01
2019-04-20T15:27:02.953Z,102436.73
2019-04-20T15:29:32.555Z,102439.09
2019-04-20T15:32:02.123Z,102439.98
2019-04-20T15:34:31.485Z,102439.37
2019-04-20T15:37:02.363Z,102425.38
2019-04-20T15:39:34.960Z,102433.75
2019-04-20T15:42:36.267Z,102425.84
2019-04-20T15:45:19.199Z,102433.98
2019-04-20T15:47:49.963Z,102427.70
2019-04-20T15:54:00.076Z,102430.44
2019-04-20T15:56:29.399Z,102412.61
2019-04-20T15:58:58.866Z,102423.02
2019-04-20T16:01:34.370Z,102417.34
2019-04-20T16:04:11.775Z,102424.72
2019-04-20T16:06:41.187Z,102426.48
2019-04-20T16:09:12.401Z,102417.95
2019-04-20T16:11:41.700Z,102418.92
2019-04-20T16:14:11.209Z,102417.66
2019-04-20T16:16:40.521Z,102423.41
2019-04-20T16:19:19.223Z,102428.63
2019-04-20T16:21:41.666Z,102423.92
2019-04-20T16:24:15.064Z,102425.27
2019-04-20T16:27:15.744Z,102422.98
2019-04-20T16:29:45.112Z,102422.50
2019-04-20T16:32:14.524Z,102414.00
2019-04-20T16:34:44.526Z,102413.41
2019-04-20T16:37:14.777Z,102414.45
2019-04-20T16:39:44.303Z,102411.06
2019-04-20T16:42:14.236Z,102405.93
2019-04-20T16:44:43.646Z,102408.48
2019-04-20T16:47:14.245Z,102403.84
2019-04-20T16:49:43.821Z,102409.61
2019-04-20T16:52:13.142Z,102399.28
2019-04-20T16:54:43.765Z,102401.14
2019-04-20T16:57:15.617Z,102404.52
2019-04-20T16:59:48.244Z,102397.40
2019-04-20T17:02:17.465Z,102400.83
2019-04-20T17:04:47.481Z,102391.20
2019-04-20T17:07:31.143Z,102393.58
2019-04-20T17:10:00.519Z,102397.75
2019-04-20T17:12:30.139Z,102398.36
2019-04-20T17:14:59.574Z,102396.84
2019-04-20T17:17:29.421Z,102395.66
2019-04-20T17:19:59.669Z,102390.83
2019-04-20T17:22:29.730Z,102390.42
2019-04-20T17:24:59.112Z,102389.86
2019-04-20T17:27:48.886Z,102388.20
2019-04-20T17:30:42.985Z,102386.94
2019-04-20T17:33:16.027Z,102388.08
2019-04-20T17:35:55.281Z,102391.84
2019-04-20T17:38:16.644Z,102399.94
2019-04-20T17:41:02.844Z,102394.12
2019-04-20T17:43:24.914Z,102395.59
2019-04-20T17:45:57.855Z,102399.35
2019-04-20T17:48:33.222Z,102390.03
2019-04-20T17:51:12.263Z,102393.03
2019-04-20T17:53:53.787Z,102397.51
2019-04-20T17:56:17.695Z,102409.47
2019-04-20T17:58:48.011Z,102400.31
2019-04-20T18:01:57.754Z,102410.78
2019-04-20T18:04:48.548Z,102403.37
2019-04-20T18:06:58.936Z,102404.59
2019-04-20T18:09:42.374Z,102403.45
2019-04-20T18:11:55.258Z,102414.38
2019-04-20T18:14:40.135Z,102410.06
2019-04-20T18:17:28.241Z,102414.23
2019-04-20T18:19:58.780Z,102414.25
2019-04-20T18:22:28.146Z,102415.64
2019-04-20T18:25:20.861Z,102421.22
2019-04-20T18:27:45.955Z,102413.88
2019-04-20T18:30:15.516Z,102422.53
2019-04-20T18:32:35.719Z,102422.05
2019-04-20T18:35:12.382Z,102416.41
2019-04-20T18:37:44.114Z,102420.24
2019-04-20T18:40:24.675Z,102421.26
2019-04-20T18:42:49.271Z,102420.16
2019-04-20T18:45:32.278Z,102421.17
2019-04-20T18:48:14.690Z,102424.38
2019-04-20T18:50:27.682Z,102422.23
2019-04-20T18:52:53.986Z,102424.72
2019-04-20T18:55:33.273Z,102426.98
2019-04-20T18:57:55.159Z,102427.20
2019-04-20T19:00:31.580Z,102428.71
2019-04-20T19:03:01.387Z,102423.55
2019-04-20T19:05:27.708Z,102435.66
2019-04-20T19:08:01.514Z,102435.72
2019-04-20T19:10:32.790Z,102434.83
2019-04-20T19:13:08.099Z,102437.98
2019-04-20T19:16:00.234Z,102434.52
2019-04-20T19:18:49.420Z,102434.28
2019-04-20T19:21:06.776Z,102432.23
2019-04-20T19:23:42.441Z,102437.52
2019-04-20T19:26:13.787Z,102440.27
2019-04-20T19:28:45.170Z,102442.14
2019-04-20T19:31:25.248Z,102436.85
2019-04-20T19:33:58.871Z,102441.88
2019-04-20T19:36:24.495Z,102446.01
2019-04-20T19:38:59.819Z,102445.64
2019-04-20T19:41:30.237Z,102441.30
2019-04-20T19:44:01.408Z,102448.03
2019-04-20T19:46:46.369Z,102449.81
2019-04-20T19:48:56.058Z,102456.47
2019-04-20T19:51:41.194Z,102451.70
2019-04-20T19:54:13.199Z,102460.62
2019-04-20T19:56:37.346Z,102453.95
2019-04-20T19:59:07.127Z,102451.83
2019-04-20T20:01:24.761Z,102453.14
2019-04-20T20:03:58.732Z,102453.70
2019-04-20T20:06:34.286Z,102457.30
2019-04-20T20:09:01.875Z,102456.83
2019-04-20T20:11:34.018Z,102464.08
2019-04-20T20:14:03.768Z,102460.55
2019-04-20T20:16:50.697Z,102452.97
2019-04-20T20:19:11.476Z,102455.69
2019-04-20T20:21:50.595Z,102447.70
2019-04-20T20:24:04.439Z,102445.59
2019-04-20T20:26:38.597Z,102452.27
2019-04-20T20:29:13.098Z,102453.64
2019-04-20T20:31:53.048Z,102458.06
2019-04-20T20:34:17.008Z,102459.45
2019-04-20T20:36:49.805Z,102452.33
2019-04-20T20:39:20.041Z,102455.48
2019-04-20T20:41:57.880Z,102459.55
2019-04-20T20:44:36.033Z,102464.46
2019-04-20T20:46:59.748Z,102458.72
2019-04-20T20:49:41.925Z,102457.03
2019-04-20T20:52:12.063Z,102460.20
2019-04-20T20:59:57.558Z,102467.75
2019-04-20T21:02:33.672Z,102463.34
2019-04-20T21:04:57.711Z,102461.58
2019-04-20T21:07:27.149Z,102463.80
2019-04-20T21:09:56.577Z,102467.83
2019-04-20T21:12:27.061Z,102462.52
2019-04-20T21:15:00.459Z,102468.73
2019-04-20T21:17:40.962Z,102468.28
2019-04-20T21:20:15.666Z,102461.18
2019-04-20T21:22:50.298Z,102463.46
2019-04-20T21:25:05.340Z,102462.11
2019-04-20T21:27:35.019Z,102465.66
2019-04-20T21:30:05.703Z,102462.99
2019-04-20T21:32:54.310Z,102461.67
2019-04-20T21:35:22.115Z,102462.12
2019-04-20T21:37:58.869Z,102452.86
2019-04-20T21:40:31.499Z,102460.83
2019-04-20T21:42:59.287Z,102452.86
2019-04-20T21:45:30.523Z,102452.86
2019-04-20T21:47:56.742Z,102449.31
2019-04-20T21:50:42.739Z,102454.63
2019-04-20T21:53:06.052Z,102454.19
2019-04-20T21:55:28.140Z,102453.31
2019-04-20T21:58:00.456Z,102457.72
2019-04-20T22:01:17.663Z,102461.70
2019-04-20T22:03:38.384Z,102460.39
2019-04-20T22:06:08.901Z,102456.84
2019-04-20T22:08:44.117Z,102456.38
2019-04-20T22:11:09.532Z,102457.28
2019-04-20T22:13:43.533Z,102452.86
2019-04-20T22:16:12.559Z,102448.84
2019-04-20T22:18:59.190Z,102447.91
2019-04-20T22:21:21.270Z,102446.59
2019-04-20T22:23:59.947Z,102441.27
2019-04-20T22:26:25.268Z,102446.55
2019-04-20T22:28:46.272Z,102446.11
2019-04-20T22:31:16.001Z,102438.16
2019-04-20T22:33:46.917Z,102438.58
2019-04-20T22:36:18.070Z,102439.47
2019-04-20T22:39:07.567Z,102437.70
2019-04-20T22:42:03.223Z,102432.33
2019-04-20T22:44:30.390Z,102437.61
2019-04-20T22:46:58.655Z,102439.34
2019-04-20T22:49:44.157Z,102430.99
2019-04-20T22:52:13.217Z,102432.24
2019-04-20T22:54:45.920Z,102428.69
2019-04-20T22:57:11.946Z,102432.23
2019-04-20T22:59:41.832Z,102429.50
2019-04-20T23:02:05.680Z,102425.98
2019-04-20T23:04:34.961Z,102424.61
2019-04-20T23:07:05.054Z,102417.06
2019-04-20T23:09:39.423Z,102413.09
2019-04-20T23:12:11.312Z,102411.31
2019-04-20T23:14:38.366Z,102407.34
2019-04-20T23:17:08.281Z,102413.89
2019-04-20T23:19:45.721Z,102405.95
2019-04-20T23:22:12.058Z,102407.22
2019-04-20T23:24:41.478Z,102405.86
2019-04-20T23:27:18.200Z,102401.36
2019-04-20T23:29:43.476Z,102394.31
2019-04-20T23:32:14.528Z,102391.20
2019-04-20T23:34:44.754Z,102395.13
2019-04-20T23:37:20.102Z,102392.87
2019-04-20T23:39:47.726Z,102388.91
2019-04-20T23:42:19.964Z,102377.00
2019-04-20T23:45:07.534Z,102373.39
2019-04-20T23:47:46.555Z,102369.53
2019-04-20T23:50:34.196Z,102362.37
2019-04-20T23:53:06.701Z,102357.48
2019-04-20T23:55:18.676Z,102351.60
2019-04-20T23:57:54.757Z,102360.86
